createdAt,value
2018-03-04T00:00:14.629Z,58.33
2018-03-04T00:02:42.098Z,59.72
2018-03-04T00:05:09.576Z,65.25
2018-03-04T00:07:37.037Z,57.67
2018-03-04T00:10:04.495Z,58.83
2018-03-04T00:12:32.401Z,63.28
2018-03-04T00:14:59.878Z,56.45
2018-03-04T00:17:27.339Z,64.50
2018-03-04T00:19:54.775Z,55.12
2018-03-04T00:22:33.979Z,48.87
2018-03-04T00:25:01.851Z,58.80
2018-03-04T00:27:31.491Z,64.30
2018-03-04T00:29:58.978Z,49.70
2018-03-04T00:32:29.085Z,62.88
2018-03-04T00:34:57.894Z,58.30
2018-03-04T00:37:26.656Z,60.78
2018-03-04T00:39:54.120Z,54.28
2018-03-04T00:42:22.861Z,57.67
2018-03-04T00:44:50.734Z,53.45
2018-03-04T00:47:18.583Z,58.30
2018-03-04T00:49:46.090Z,49.83
2018-03-04T00:52:13.570Z,54.05
2018-03-04T00:54:41.848Z,46.75
2018-03-04T00:57:09.564Z,54.58
2018-03-04T00:59:37.927Z,47.33
2018-03-04T01:02:06.677Z,75.40
2018-03-04T01:04:34.831Z,52.58
2018-03-04T01:07:02.291Z,45.83
2018-03-04T01:09:29.776Z,70.22
2018-03-04T01:11:57.658Z,44.65
2018-03-04T01:14:25.117Z,48.70
2018-03-04T01:16:53.647Z,49.90
2018-03-04T01:19:21.118Z,60.50
2018-03-04T01:21:48.596Z,54.45
2018-03-04T01:24:16.306Z,54.60
2018-03-04T01:26:43.753Z,74.28
2018-03-04T01:29:11.184Z,54.05
2018-03-04T01:31:39.990Z,62.75
2018-03-04T01:34:07.444Z,50.60
2018-03-04T01:36:34.910Z,68.90
2018-03-04T01:39:03.143Z,62.22
2018-03-04T01:41:30.570Z,50.05
2018-03-04T01:43:58.032Z,56.47
2018-03-04T01:46:27.024Z,56.35
2018-03-04T01:48:55.068Z,45.63
2018-03-04T01:51:22.547Z,55.70
2018-03-04T01:53:50.945Z,59.35
2018-03-04T01:56:23.022Z,57.40
2018-03-04T01:58:50.760Z,55.40
2018-03-04T02:01:19.124Z,50.15
2018-03-04T02:03:46.597Z,54.83
2018-03-04T02:06:14.026Z,61.00
2018-03-04T02:08:41.451Z,53.55
2018-03-04T02:11:09.292Z,70.60
2018-03-04T02:13:36.723Z,59.40
2018-03-04T02:16:04.153Z,63.03
2018-03-04T02:18:31.575Z,59.05
2018-03-04T02:20:59.012Z,54.55
2018-03-04T02:23:26.441Z,52.33
2018-03-04T02:25:53.879Z,62.38
2018-03-04T02:28:21.312Z,65.37
2018-03-04T02:30:49.140Z,63.20
2018-03-04T02:33:16.582Z,55.70
2018-03-04T02:35:44.018Z,55.80
2018-03-04T02:38:11.445Z,63.97
2018-03-04T02:40:38.885Z,44.63
2018-03-04T02:43:06.308Z,61.90
2018-03-04T02:45:33.750Z,54.13
2018-03-04T02:48:01.195Z,62.97
2018-03-04T02:50:28.633Z,59.60
2018-03-04T02:52:56.464Z,59.88
2018-03-04T02:55:23.901Z,60.85
2018-03-04T02:57:51.326Z,48.05
2018-03-04T03:00:18.771Z,60.08
2018-03-04T03:02:46.185Z,60.50
2018-03-04T03:05:13.618Z,67.22
2018-03-04T03:07:41.069Z,59.13
2018-03-04T03:10:08.508Z,63.15
2018-03-04T03:12:35.936Z,58.35
2018-03-04T03:15:03.764Z,52.00
2018-03-04T03:17:31.203Z,58.67
2018-03-04T03:19:58.640Z,44.17
2018-03-04T03:22:26.070Z,56.10
2018-03-04T03:24:53.500Z,55.00
2018-03-04T03:27:20.928Z,69.07
2018-03-04T03:29:48.369Z,56.30
2018-03-04T03:32:15.813Z,53.08
2018-03-04T03:34:43.250Z,52.15
2018-03-04T03:37:10.676Z,70.12
2018-03-04T03:39:38.177Z,60.33
2018-03-04T03:42:05.634Z,53.10
2018-03-04T03:44:33.045Z,55.78
2018-03-04T03:47:00.495Z,53.95
2018-03-04T03:49:27.930Z,60.65
2018-03-04T03:51:55.375Z,49.83
2018-03-04T03:54:22.793Z,59.25
2018-03-04T03:56:50.229Z,51.50
2018-03-04T03:59:17.662Z,65.53
2018-03-04T04:01:45.103Z,54.63
2018-03-04T04:04:12.536Z,51.08
2018-03-04T04:06:40.372Z,63.78
2018-03-04T04:09:07.799Z,54.33
2018-03-04T04:11:35.235Z,57.47
2018-03-04T04:14:02.663Z,59.22
2018-03-04T04:16:30.086Z,42.42
2018-03-04T04:18:57.517Z,59.08
2018-03-04T04:21:24.962Z,64.93
2018-03-04T04:23:52.408Z,55.17
2018-03-04T04:26:20.244Z,56.05
2018-03-04T04:28:47.677Z,52.05
2018-03-04T04:31:15.112Z,51.45
2018-03-04T04:33:42.559Z,61.83
2018-03-04T04:36:09.975Z,63.80
2018-03-04T04:38:37.395Z,61.33
2018-03-04T04:41:04.837Z,57.38
2018-03-04T04:43:32.272Z,59.47
2018-03-04T04:45:59.728Z,58.35
2018-03-04T04:48:27.158Z,64.22
2018-03-04T04:50:54.994Z,60.97
2018-03-04T04:53:22.424Z,50.83
2018-03-04T04:55:49.860Z,54.40
2018-03-04T04:58:17.296Z,50.67
2018-03-04T05:00:44.728Z,51.75
2018-03-04T05:03:12.150Z,56.42
2018-03-04T05:05:39.592Z,63.10
2018-03-04T05:08:07.025Z,57.75
2018-03-04T05:10:34.865Z,61.97
2018-03-04T05:13:02.294Z,59.83
2018-03-04T05:15:29.735Z,55.42
2018-03-04T05:17:57.160Z,62.22
2018-03-04T05:20:25.436Z,67.53
2018-03-04T05:22:52.862Z,64.40
2018-03-04T05:25:20.288Z,48.50
2018-03-04T05:27:47.740Z,73.97
2018-03-04T05:30:15.167Z,56.10
2018-03-04T05:32:42.992Z,68.43
2018-03-04T05:35:10.420Z,58.40
2018-03-04T05:37:37.873Z,51.92
2018-03-04T05:40:05.309Z,62.03
2018-03-04T05:42:32.755Z,55.10
2018-03-04T05:45:00.564Z,48.90
2018-03-04T05:47:28.028Z,60.10
2018-03-04T05:49:55.452Z,62.08
2018-03-04T05:52:22.896Z,54.40
2018-03-04T05:54:50.339Z,53.63
2018-03-04T05:57:18.171Z,54.90
2018-03-04T05:59:45.592Z,56.90
2018-03-04T06:02:13.034Z,57.50
2018-03-04T06:04:40.451Z,54.85
2018-03-04T06:07:07.885Z,63.40
2018-03-04T06:09:35.315Z,56.80
2018-03-04T06:12:02.774Z,57.72
2018-03-04T06:14:30.227Z,68.47
2018-03-04T06:16:57.667Z,57.15
2018-03-04T06:19:25.092Z,50.92
2018-03-04T06:21:52.525Z,57.97
2018-03-04T06:24:19.958Z,57.28
2018-03-04T06:26:47.397Z,55.90
2018-03-04T06:29:14.884Z,61.42
2018-03-04T06:31:44.197Z,47.75
2018-03-04T06:34:11.632Z,49.83
2018-03-04T06:36:39.064Z,65.45
2018-03-04T06:39:06.497Z,44.38
2018-03-04T06:41:33.941Z,48.95
2018-03-04T06:44:01.362Z,62.67
2018-03-04T06:46:28.808Z,64.37
2018-03-04T06:48:56.282Z,62.70
2018-03-04T06:51:23.742Z,69.15
2018-03-04T06:53:51.189Z,51.90
2018-03-04T06:56:18.632Z,56.35
2018-03-04T06:58:46.068Z,58.63
2018-03-04T07:01:13.911Z,53.95
2018-03-04T07:03:41.365Z,64.65
2018-03-04T07:06:08.813Z,53.87
2018-03-04T07:08:36.245Z,66.65
2018-03-04T07:11:03.706Z,66.95
2018-03-04T07:13:31.141Z,57.70
2018-03-04T07:15:58.597Z,66.57
2018-03-04T07:18:26.121Z,51.83
2018-03-04T07:20:53.584Z,62.35
2018-03-04T07:23:21.437Z,57.15
2018-03-04T07:25:49.266Z,73.30
2018-03-04T07:28:16.702Z,66.53
2018-03-04T07:30:44.133Z,63.22
2018-03-04T07:33:11.592Z,60.72
2018-03-04T07:35:38.996Z,65.03
2018-03-04T07:38:06.448Z,56.90
2018-03-04T07:40:33.892Z,61.70
2018-03-04T07:43:01.339Z,55.58
2018-03-04T07:45:28.772Z,63.70
2018-03-04T07:47:56.257Z,60.03
2018-03-04T07:50:23.682Z,74.97
2018-03-04T07:52:51.508Z,64.22
2018-03-04T07:55:18.976Z,68.03
2018-03-04T07:57:46.404Z,63.05
2018-03-04T08:00:13.864Z,62.28
2018-03-04T08:02:41.288Z,63.35
2018-03-04T08:05:08.762Z,47.60
2018-03-04T08:07:36.185Z,61.28
2018-03-04T08:10:04.127Z,61.78
2018-03-04T08:12:31.584Z,69.15
2018-03-04T08:14:59.036Z,50.85
2018-03-04T08:17:26.475Z,62.83
2018-03-04T08:19:53.952Z,59.33
2018-03-04T08:22:21.397Z,69.80
2018-03-04T08:25:00.438Z,52.70
2018-03-04T08:27:40.434Z,68.45
2018-03-04T08:30:07.861Z,56.40
2018-03-04T08:32:35.296Z,68.03
2018-03-04T08:35:02.727Z,65.60
2018-03-04T08:37:30.169Z,63.72
2018-03-04T08:39:57.636Z,60.00
2018-03-04T08:42:25.072Z,69.22
2018-03-04T08:44:52.508Z,51.92
2018-03-04T08:47:20.337Z,63.20
2018-03-04T08:49:47.772Z,57.47
2018-03-04T08:52:15.208Z,70.28
2018-03-04T08:54:42.630Z,62.17
2018-03-04T08:57:10.112Z,74.60
2018-03-04T08:59:37.568Z,73.93
2018-03-04T09:02:05.020Z,54.08
2018-03-04T09:04:32.472Z,61.40
2018-03-04T09:06:59.905Z,66.78
2018-03-04T09:09:27.336Z,64.12
2018-03-04T09:11:54.780Z,110.95
2018-03-04T09:14:22.218Z,66.43
2018-03-04T09:16:49.662Z,74.25
2018-03-04T09:19:17.085Z,57.70
2018-03-04T09:21:44.530Z,73.35
2018-03-04T09:24:11.981Z,66.87
2018-03-04T09:26:39.444Z,68.57
2018-03-04T09:29:06.878Z,62.97
2018-03-04T09:31:34.316Z,69.12
2018-03-04T09:34:01.780Z,63.65
2018-03-04T09:36:29.212Z,66.40
2018-03-04T09:38:56.650Z,69.28
2018-03-04T09:41:24.072Z,89.30
2018-03-04T09:43:51.521Z,67.53
2018-03-04T09:46:18.954Z,65.32
2018-03-04T09:48:46.388Z,64.82
2018-03-04T09:51:13.832Z,71.18
2018-03-04T09:53:42.184Z,63.95
2018-03-04T09:56:09.634Z,65.20
2018-03-04T09:58:37.090Z,63.78
2018-03-04T10:01:04.534Z,65.35
2018-03-04T10:03:31.968Z,75.95
2018-03-04T10:05:59.404Z,71.22
2018-03-04T10:08:26.873Z,87.12
2018-03-04T10:10:54.304Z,68.68
2018-03-04T10:13:22.144Z,58.08
2018-03-04T10:15:49.581Z,68.62
2018-03-04T10:18:17.024Z,65.43
2018-03-04T10:20:44.461Z,59.40
2018-03-04T10:23:11.901Z,61.28
2018-03-04T10:25:39.348Z,75.43
2018-03-04T10:28:06.808Z,64.05
2018-03-04T10:30:34.228Z,67.35
2018-03-04T10:33:01.744Z,56.83
2018-03-04T10:35:29.173Z,67.68
2018-03-04T10:37:56.616Z,69.78
2018-03-04T10:40:24.069Z,68.70
2018-03-04T10:55:24.337Z,75.62
2018-03-04T10:57:51.773Z,58.13
2018-03-04T11:00:24.187Z,66.12
2018-03-04T11:02:51.624Z,64.15
2018-03-04T11:05:19.055Z,74.70
2018-03-04T11:07:46.488Z,71.68
2018-03-04T11:10:14.320Z,59.58
2018-03-04T11:12:41.764Z,68.03
2018-03-04T11:15:09.211Z,69.15
2018-03-04T11:17:36.652Z,65.18
2018-03-04T11:20:04.081Z,72.28
2018-03-04T11:22:31.538Z,61.13
2018-03-04T11:24:58.992Z,64.40
2018-03-04T11:27:26.415Z,61.42
2018-03-04T11:29:53.870Z,59.28
2018-03-04T11:43:46.316Z,65.80
2018-03-04T11:46:13.739Z,64.75
2018-03-04T11:48:41.184Z,63.80
2018-03-04T11:51:08.613Z,62.85
2018-03-04T11:53:36.057Z,61.83
2018-03-04T11:56:03.887Z,65.80
2018-03-04T11:58:31.334Z,65.03
2018-03-04T12:00:58.778Z,62.38
2018-03-04T12:03:26.200Z,67.60
2018-03-04T12:05:53.641Z,60.78
2018-03-04T12:08:21.468Z,57.00
2018-03-04T12:10:48.904Z,58.58
2018-03-04T12:13:16.344Z,54.20
2018-03-04T12:15:43.784Z,65.93
2018-03-04T12:18:11.240Z,69.60
2018-03-04T12:20:38.664Z,62.62
2018-03-04T12:23:06.108Z,60.95
2018-03-04T12:25:33.556Z,72.25
2018-03-04T12:28:01.001Z,57.97
2018-03-04T12:30:28.429Z,56.55
2018-03-04T12:32:56.440Z,60.72
2018-03-04T12:35:23.890Z,59.30
2018-03-04T12:37:51.322Z,57.33
2018-03-04T12:40:18.763Z,57.58
2018-03-04T12:42:46.190Z,57.28
2018-03-04T12:45:13.636Z,65.57
2018-03-04T12:47:41.080Z,55.28
2018-03-04T12:50:08.522Z,58.00
2018-03-04T12:52:35.961Z,53.07
2018-03-04T12:55:03.410Z,48.80
2018-03-04T12:57:30.864Z,45.67
2018-03-04T12:59:58.360Z,53.50
2018-03-04T13:02:26.333Z,61.93
2018-03-04T13:04:53.788Z,53.70
2018-03-04T13:07:21.225Z,54.73
2018-03-04T13:09:48.674Z,95.40
2018-03-04T13:12:16.105Z,52.50
2018-03-04T13:14:43.949Z,64.77
2018-03-04T13:17:11.383Z,57.75
2018-03-04T13:19:38.821Z,52.60
2018-03-04T13:22:06.264Z,48.33
2018-03-04T13:24:33.698Z,45.87
2018-03-04T13:27:01.524Z,53.07
2018-03-04T13:29:28.973Z,57.30
2018-03-04T13:31:56.409Z,48.10
2018-03-04T13:34:23.878Z,45.33
2018-03-04T13:36:51.293Z,46.00
2018-03-04T13:39:18.741Z,55.03
2018-03-04T13:41:46.169Z,53.97
2018-03-04T13:44:13.608Z,53.30
2018-03-04T13:46:41.184Z,50.00
2018-03-04T13:49:08.630Z,44.95
2018-03-04T13:51:36.061Z,50.47
2018-03-04T13:54:03.509Z,49.90
2018-03-04T13:56:30.972Z,50.03
2018-03-04T13:58:58.404Z,55.50
2018-03-04T14:01:25.860Z,36.10
2018-03-04T14:03:53.309Z,37.67
2018-03-04T14:06:20.743Z,71.83
2018-03-04T14:08:48.185Z,62.57
2018-03-04T14:11:15.630Z,29.37
2018-03-04T14:13:43.069Z,25.53
2018-03-04T14:16:10.515Z,27.13
2018-03-04T14:18:37.968Z,22.60
2018-03-04T14:21:05.405Z,27.30
2018-03-04T14:23:33.249Z,22.00
2018-03-04T14:26:00.754Z,26.40
2018-03-04T14:28:28.151Z,31.20
2018-03-04T14:30:55.584Z,35.60
2018-03-04T14:33:23.026Z,32.10
2018-03-04T14:35:50.465Z,32.90
2018-03-04T14:38:17.893Z,44.13
2018-03-04T14:40:45.340Z,37.10
2018-03-04T14:43:12.776Z,27.67
2018-03-04T14:45:40.216Z,37.77
2018-03-04T14:48:07.653Z,37.07
2018-03-04T14:50:35.114Z,32.20
2018-03-04T14:55:36.317Z,34.07
2018-03-04T14:58:03.754Z,30.70
2018-03-04T15:00:31.205Z,35.90
2018-03-04T15:02:58.646Z,36.67
2018-03-04T15:05:26.111Z,32.43
2018-03-04T15:07:53.544Z,36.00
2018-03-04T15:10:20.999Z,30.43
2018-03-04T15:12:48.821Z,33.23
2018-03-04T15:15:16.261Z,34.40
2018-03-04T15:17:43.692Z,30.17
2018-03-04T15:20:11.136Z,29.43
2018-03-04T15:22:38.574Z,34.50
2018-03-04T15:25:06.415Z,28.67
2018-03-04T15:27:33.841Z,38.77
2018-03-04T15:30:01.285Z,32.60
2018-03-04T15:32:28.712Z,33.50
2018-03-04T15:34:56.165Z,34.00
2018-03-04T15:37:23.993Z,30.80
2018-03-04T15:39:51.447Z,35.77
2018-03-04T15:42:18.877Z,31.00
2018-03-04T15:44:46.320Z,25.77
2018-03-04T15:47:13.760Z,28.67
2018-03-04T15:49:41.608Z,33.90
2018-03-04T15:52:09.028Z,30.77
2018-03-04T15:54:36.483Z,30.00
2018-03-04T15:57:03.916Z,30.50
2018-03-04T15:59:31.356Z,34.77
2018-03-04T16:01:58.791Z,31.97
2018-03-04T16:04:26.226Z,36.37
2018-03-04T16:06:53.659Z,33.63
2018-03-04T16:09:21.096Z,36.50
2018-03-04T16:11:48.538Z,38.40
2018-03-04T16:14:15.980Z,40.17
2018-03-04T16:16:43.820Z,34.67
2018-03-04T16:19:11.260Z,37.10
2018-03-04T16:21:38.734Z,35.40
2018-03-04T16:24:06.136Z,35.10
2018-03-04T16:26:33.572Z,32.95
2018-03-04T16:29:01.412Z,34.70
2018-03-04T16:31:28.849Z,41.23
2018-03-04T16:33:56.334Z,28.20
2018-03-04T16:36:23.765Z,34.10
2018-03-04T16:38:51.195Z,38.50
2018-03-04T16:41:18.653Z,37.70
2018-03-04T16:43:46.079Z,40.67
2018-03-04T16:46:13.913Z,34.07
2018-03-04T16:48:41.343Z,37.95
2018-03-04T16:51:08.778Z,35.20
2018-03-04T16:53:36.213Z,44.10
2018-03-04T16:56:03.638Z,40.17
2018-03-04T16:58:31.087Z,35.55
2018-03-04T17:00:58.524Z,40.17
2018-03-04T17:03:25.958Z,37.93
2018-03-04T17:05:53.392Z,38.63
2018-03-04T17:08:21.229Z,41.57
2018-03-04T17:10:48.672Z,43.75
2018-03-04T17:13:16.104Z,40.10
2018-03-04T17:15:43.546Z,39.70
2018-03-04T17:18:10.979Z,40.67
2018-03-04T17:20:38.414Z,41.53
2018-03-04T17:23:05.849Z,42.47
2018-03-04T17:25:33.303Z,38.22
2018-03-04T17:28:00.727Z,34.42
2018-03-04T17:30:28.183Z,41.85
2018-03-04T17:32:56.008Z,37.50
2018-03-04T17:35:23.450Z,40.20
2018-03-04T17:37:50.890Z,36.85
2018-03-04T17:40:18.337Z,33.53
2018-03-04T17:42:45.765Z,40.03
2018-03-04T17:45:13.217Z,34.60
2018-03-04T17:47:40.665Z,38.13
2018-03-04T17:50:08.513Z,42.60
2018-03-04T17:52:35.945Z,40.08
2018-03-04T17:55:03.384Z,44.22
2018-03-04T17:57:30.834Z,38.45
2018-03-04T17:59:58.310Z,40.92
2018-03-04T18:02:25.772Z,40.33
2018-03-04T18:04:53.249Z,43.83
2018-03-04T18:07:20.704Z,36.83
2018-03-04T18:09:48.173Z,32.88
2018-03-04T18:12:15.589Z,40.60
2018-03-04T18:14:43.056Z,37.50
2018-03-04T18:17:10.521Z,37.95
2018-03-04T18:19:37.997Z,35.92
2018-03-04T18:22:05.420Z,35.15
2018-03-04T18:24:32.857Z,37.75
2018-03-04T18:27:00.284Z,35.22
2018-03-04T18:29:28.123Z,34.97
2018-03-04T18:31:55.564Z,37.05
2018-03-04T18:34:23.004Z,33.60
2018-03-04T18:36:50.461Z,30.45
2018-03-04T18:39:17.899Z,42.20
2018-03-04T18:41:45.335Z,29.23
2018-03-04T18:44:12.775Z,31.73
2018-03-04T18:46:40.266Z,30.83
2018-03-04T18:49:07.725Z,30.08
2018-03-04T18:51:35.171Z,30.73
2018-03-04T18:54:02.611Z,28.00
2018-03-04T18:56:30.043Z,28.73
2018-03-04T18:58:57.481Z,23.65
2018-03-04T19:01:24.957Z,27.60
2018-03-04T19:03:52.403Z,26.60
2018-03-04T19:06:19.849Z,22.55
2018-03-04T19:08:47.292Z,25.05
2018-03-04T19:11:14.721Z,22.58
2018-03-04T19:13:42.549Z,24.30
2018-03-04T19:16:10.017Z,24.48
2018-03-04T19:18:37.460Z,21.48
2018-03-04T19:21:04.940Z,22.50
2018-03-04T19:23:32.369Z,21.87
2018-03-04T19:25:59.807Z,18.83
2018-03-04T19:28:27.266Z,16.20
2018-03-04T19:30:54.687Z,22.73
2018-03-04T19:33:22.144Z,19.60
2018-03-04T19:35:49.572Z,19.05
2018-03-04T19:38:17.010Z,16.00
2018-03-04T19:40:44.453Z,16.58
2018-03-04T19:43:11.877Z,17.08
2018-03-04T19:45:39.313Z,15.65
2018-03-04T19:48:07.145Z,19.42
2018-03-04T19:50:34.567Z,16.33
2018-03-04T19:53:02.008Z,17.58
2018-03-04T19:55:29.449Z,22.70
2018-03-04T19:57:56.875Z,16.83
2018-03-04T20:00:24.316Z,22.25
2018-03-04T20:02:51.747Z,18.12
2018-03-04T20:05:19.183Z,15.95
2018-03-04T20:07:47.028Z,20.62
2018-03-04T20:10:14.464Z,19.60
2018-03-04T20:12:41.912Z,23.62
2018-03-04T20:15:09.357Z,27.40
2018-03-04T20:17:36.846Z,20.62
2018-03-04T20:20:04.264Z,26.33
2018-03-04T20:22:31.717Z,18.52
2018-03-04T20:24:59.144Z,16.10
2018-03-04T20:27:26.589Z,17.62
2018-03-04T20:29:54.016Z,18.67
2018-03-04T20:32:21.479Z,21.20
2018-03-04T20:34:48.903Z,18.83
2018-03-04T20:37:16.342Z,17.50
2018-03-04T20:39:43.796Z,22.23
2018-03-04T20:42:11.232Z,21.70
2018-03-04T20:44:39.073Z,21.00
2018-03-04T20:47:06.535Z,20.35
2018-03-04T20:49:33.964Z,20.48
2018-03-04T20:52:01.417Z,26.20
2018-03-04T20:54:28.839Z,20.65
2018-03-04T20:56:56.286Z,18.90
2018-03-04T20:59:23.765Z,26.33
2018-03-04T21:01:51.204Z,18.05
2018-03-04T21:04:18.645Z,19.40
2018-03-04T21:06:46.088Z,22.62
2018-03-04T21:09:13.525Z,20.48
2018-03-04T21:11:40.960Z,27.25
2018-03-04T21:14:08.396Z,18.83
2018-03-04T21:16:35.837Z,26.65
2018-03-04T21:19:03.570Z,21.05
2018-03-04T21:21:31.009Z,20.75
2018-03-04T21:23:58.445Z,20.00
2018-03-04T21:26:25.894Z,19.50
2018-03-04T21:28:53.880Z,15.23
2018-03-04T21:31:21.334Z,19.67
2018-03-04T21:33:48.768Z,14.38
2018-03-04T21:36:16.259Z,15.85
2018-03-04T21:38:43.640Z,19.08
2018-03-04T21:41:11.082Z,23.83
2018-03-04T21:43:38.511Z,20.08
2018-03-04T21:46:05.943Z,18.27
2018-03-04T21:48:33.380Z,21.77
2018-03-04T21:51:01.234Z,25.67
2018-03-04T21:53:29.068Z,19.95
2018-03-04T21:55:56.495Z,28.50
2018-03-04T21:58:23.936Z,22.77
2018-03-04T22:00:51.368Z,22.70
2018-03-04T22:03:18.837Z,19.95
2018-03-04T22:05:46.277Z,20.27
2018-03-04T22:08:13.786Z,19.12
2018-03-04T22:10:41.229Z,19.55
2018-03-04T22:13:08.665Z,23.35
2018-03-04T22:15:36.095Z,20.08
2018-03-04T22:18:03.532Z,24.87
2018-03-04T22:20:30.965Z,17.67
2018-03-04T22:22:58.405Z,22.37
2018-03-04T22:25:25.841Z,19.70
2018-03-04T22:27:53.674Z,20.37
2018-03-04T22:30:21.101Z,16.20
2018-03-04T22:32:48.549Z,24.25
2018-03-04T22:35:15.976Z,16.77
2018-03-04T22:37:43.412Z,19.70
2018-03-04T22:40:10.884Z,17.92
2018-03-04T22:42:38.309Z,20.12
2018-03-04T22:45:05.737Z,19.08
2018-03-04T22:47:33.173Z,18.02
2018-03-04T22:50:00.637Z,17.90
2018-03-04T22:52:28.461Z,14.30
2018-03-04T22:54:55.903Z,18.67
2018-03-04T22:57:23.352Z,23.92
2018-03-04T22:59:50.776Z,23.30
2018-03-04T23:02:18.216Z,18.48
2018-03-04T23:04:45.663Z,19.10
2018-03-04T23:07:13.097Z,19.45
2018-03-04T23:09:40.528Z,23.30
2018-03-04T23:12:07.960Z,19.58
2018-03-04T23:14:35.393Z,16.73
2018-03-04T23:17:03.237Z,17.92
2018-03-04T23:19:30.677Z,20.60
2018-03-04T23:21:58.121Z,19.37
2018-03-04T23:24:25.562Z,18.58
2018-03-04T23:26:52.999Z,19.02
2018-03-04T23:29:20.432Z,16.33
2018-03-04T23:31:47.868Z,20.12
2018-03-04T23:34:15.319Z,14.70
2018-03-04T23:36:42.753Z,18.25
2018-03-04T23:39:10.200Z,22.00
2018-03-04T23:41:37.624Z,15.88
2018-03-04T23:44:05.484Z,22.35
2018-03-04T23:46:33.332Z,20.05
2018-03-04T23:49:00.778Z,20.25
2018-03-04T23:51:28.212Z,19.45
2018-03-04T23:53:55.669Z,17.02
2018-03-04T23:56:23.109Z,17.33
2018-03-04T23:58:50.538Z,17.58
